sensor_id;sensor_type;location;lat;lon;timestamp;P1;durP1;ratioP1;P2;durP2;ratioP2
9898;SDS011;4988;49.238;6.698;2022-08-19T00:01:31;19.73;;;12.67;;
9898;SDS011;4988;49.238;6.698;2022-08-19T00:03:58;19.50;;;12.40;;
9898;SDS011;4988;49.238;6.698;2022-08-19T00:06:27;19.17;;;13.00;;
9898;SDS011;4988;49.238;6.698;2022-08-19T00:08:53;17.03;;;12.47;;
9898;SDS011;4988;49.238;6.698;2022-08-19T00:11:20;22.93;;;13.07;;
9898;SDS011;4988;49.238;6.698;2022-08-19T00:13:45;21.93;;;13.23;;
9898;SDS011;4988;49.238;6.698;2022-08-19T00:16:13;20.63;;;12.80;;
9898;SDS011;4988;49.238;6.698;2022-08-19T00:18:40;22.50;;;13.57;;
9898;SDS011;4988;49.238;6.698;2022-08-19T00:21:05;21.73;;;14.07;;
9898;SDS011;4988;49.238;6.698;2022-08-19T00:23:33;21.27;;;14.07;;
9898;SDS011;4988;49.238;6.698;2022-08-19T00:26:01;20.20;;;13.67;;
9898;SDS011;4988;49.238;6.698;2022-08-19T00:28:28;20.73;;;12.63;;
9898;SDS011;4988;49.238;6.698;2022-08-19T00:30:53;18.67;;;12.33;;
9898;SDS011;4988;49.238;6.698;2022-08-19T00:33:19;19.60;;;12.67;;
9898;SDS011;4988;49.238;6.698;2022-08-19T00:35:44;21.67;;;13.70;;
9898;SDS011;4988;49.238;6.698;2022-08-19T00:38:09;20.17;;;13.17;;
9898;SDS011;4988;49.238;6.698;2022-08-19T00:40:35;19.93;;;13.20;;
9898;SDS011;4988;49.238;6.698;2022-08-19T00:43:00;19.83;;;12.83;;
9898;SDS011;4988;49.238;6.698;2022-08-19T00:45:27;20.00;;;12.33;;
9898;SDS011;4988;49.238;6.698;2022-08-19T00:47:55;20.37;;;13.10;;
9898;SDS011;4988;49.238;6.698;2022-08-19T00:50:20;18.23;;;12.27;;
9898;SDS011;4988;49.238;6.698;2022-08-19T00:52:47;19.67;;;12.43;;
9898;SDS011;4988;49.238;6.698;2022-08-19T00:55:22;19.43;;;12.63;;
9898;SDS011;4988;49.238;6.698;2022-08-19T00:57:55;19.50;;;13.03;;
9898;SDS011;4988;49.238;6.698;2022-08-19T01:00:23;18.73;;;12.50;;
9898;SDS011;4988;49.238;6.698;2022-08-19T01:02:49;19.70;;;13.27;;
9898;SDS011;4988;49.238;6.698;2022-08-19T01:05:18;24.43;;;13.67;;
9898;SDS011;4988;49.238;6.698;2022-08-19T01:07:46;22.50;;;13.73;;
9898;SDS011;4988;49.238;6.698;2022-08-19T01:10:15;21.10;;;12.93;;
9898;SDS011;4988;49.238;6.698;2022-08-19T01:12:43;22.57;;;13.80;;
9898;SDS011;4988;49.238;6.698;2022-08-19T01:15:11;18.70;;;12.63;;
9898;SDS011;4988;49.238;6.698;2022-08-19T01:17:39;20.57;;;13.00;;
9898;SDS011;4988;49.238;6.698;2022-08-19T01:20:06;18.00;;;12.80;;
9898;SDS011;4988;49.238;6.698;2022-08-19T01:22:37;20.37;;;12.97;;
9898;SDS011;4988;49.238;6.698;2022-08-19T01:25:11;17.93;;;12.13;;
9898;SDS011;4988;49.238;6.698;2022-08-19T01:27:39;20.23;;;12.70;;
9898;SDS011;4988;49.238;6.698;2022-08-19T01:30:07;18.83;;;12.67;;
9898;SDS011;4988;49.238;6.698;2022-08-19T01:32:32;19.23;;;12.73;;
9898;SDS011;4988;49.238;6.698;2022-08-19T01:34:58;18.90;;;13.07;;
9898;SDS011;4988;49.238;6.698;2022-08-19T01:37:26;18.13;;;12.50;;
9898;SDS011;4988;49.238;6.698;2022-08-19T01:39:51;20.47;;;12.23;;
9898;SDS011;4988;49.238;6.698;2022-08-19T01:42:17;17.33;;;12.27;;
9898;SDS011;4988;49.238;6.698;2022-08-19T01:44:43;17.97;;;12.30;;
9898;SDS011;4988;49.238;6.698;2022-08-19T01:47:08;17.57;;;11.80;;
9898;SDS011;4988;49.238;6.698;2022-08-19T01:49:35;16.80;;;11.63;;
9898;SDS011;4988;49.238;6.698;2022-08-19T01:52:02;17.57;;;12.23;;
9898;SDS011;4988;49.238;6.698;2022-08-19T01:54:29;19.17;;;12.67;;
9898;SDS011;4988;49.238;6.698;2022-08-19T01:56:55;17.40;;;12.07;;
9898;SDS011;4988;49.238;6.698;2022-08-19T01:59:26;19.30;;;12.60;;
9898;SDS011;4988;49.238;6.698;2022-08-19T02:01:51;18.73;;;12.03;;
9898;SDS011;4988;49.238;6.698;2022-08-19T02:04:17;22.37;;;13.50;;
9898;SDS011;4988;49.238;6.698;2022-08-19T02:06:42;23.23;;;13.87;;
9898;SDS011;4988;49.238;6.698;2022-08-19T02:09:08;17.50;;;12.57;;
9898;SDS011;4988;49.238;6.698;2022-08-19T02:11:34;18.57;;;12.40;;
9898;SDS011;4988;49.238;6.698;2022-08-19T02:14:02;21.47;;;13.17;;
9898;SDS011;4988;49.238;6.698;2022-08-19T02:16:29;17.63;;;12.50;;
9898;SDS011;4988;49.238;6.698;2022-08-19T02:18:55;17.87;;;12.77;;
9898;SDS011;4988;49.238;6.698;2022-08-19T02:21:22;21.93;;;14.23;;
9898;SDS011;4988;49.238;6.698;2022-08-19T02:23:48;18.40;;;13.00;;
9898;SDS011;4988;49.238;6.698;2022-08-19T02:26:16;21.93;;;13.93;;
9898;SDS011;4988;49.238;6.698;2022-08-19T02:28:43;20.07;;;13.17;;
9898;SDS011;4988;49.238;6.698;2022-08-19T02:31:12;18.60;;;13.07;;
9898;SDS011;4988;49.238;6.698;2022-08-19T02:33:42;19.13;;;12.83;;
9898;SDS011;4988;49.238;6.698;2022-08-19T02:36:08;22.93;;;13.90;;
9898;SDS011;4988;49.238;6.698;2022-08-19T02:38:35;18.90;;;13.20;;
9898;SDS011;4988;49.238;6.698;2022-08-19T02:41:03;20.53;;;13.10;;
9898;SDS011;4988;49.238;6.698;2022-08-19T02:43:32;20.33;;;13.03;;
9898;SDS011;4988;49.238;6.698;2022-08-19T02:46:02;18.13;;;12.40;;
9898;SDS011;4988;49.238;6.698;2022-08-19T02:48:38;17.70;;;11.50;;
9898;SDS011;4988;49.238;6.698;2022-08-19T02:51:03;19.60;;;12.67;;
9898;SDS011;4988;49.238;6.698;2022-08-19T02:53:30;18.93;;;12.07;;
9898;SDS011;4988;49.238;6.698;2022-08-19T02:55:55;19.87;;;12.80;;
9898;SDS011;4988;49.238;6.698;2022-08-19T02:58:21;19.27;;;12.67;;
9898;SDS011;4988;49.238;6.698;2022-08-19T03:00:48;24.70;;;13.37;;
9898;SDS011;4988;49.238;6.698;2022-08-19T03:03:16;21.73;;;13.50;;
9898;SDS011;4988;49.238;6.698;2022-08-19T03:05:42;22.83;;;14.43;;
9898;SDS011;4988;49.238;6.698;2022-08-19T03:08:08;22.27;;;13.70;;
9898;SDS011;4988;49.238;6.698;2022-08-19T03:10:41;22.70;;;14.13;;
9898;SDS011;4988;49.238;6.698;2022-08-19T03:13:09;19.67;;;13.43;;
9898;SDS011;4988;49.238;6.698;2022-08-19T03:15:38;21.27;;;13.60;;
9898;SDS011;4988;49.238;6.698;2022-08-19T03:18:04;19.60;;;12.77;;
9898;SDS011;4988;49.238;6.698;2022-08-19T03:20:30;23.17;;;14.53;;
9898;SDS011;4988;49.238;6.698;2022-08-19T03:22:55;21.43;;;13.57;;
9898;SDS011;4988;49.238;6.698;2022-08-19T03:25:20;21.73;;;14.43;;
9898;SDS011;4988;49.238;6.698;2022-08-19T03:27:45;19.80;;;13.47;;
9898;SDS011;4988;49.238;6.698;2022-08-19T03:30:13;19.23;;;12.53;;
9898;SDS011;4988;49.238;6.698;2022-08-19T03:32:39;19.70;;;12.73;;
9898;SDS011;4988;49.238;6.698;2022-08-19T03:35:04;20.87;;;12.83;;
9898;SDS011;4988;49.238;6.698;2022-08-19T03:37:30;20.20;;;13.37;;
9898;SDS011;4988;49.238;6.698;2022-08-19T03:39:57;19.37;;;13.10;;
9898;SDS011;4988;49.238;6.698;2022-08-19T03:42:22;19.10;;;12.93;;
9898;SDS011;4988;49.238;6.698;2022-08-19T03:44:48;19.83;;;12.97;;
9898;SDS011;4988;49.238;6.698;2022-08-19T03:47:13;20.93;;;13.10;;
9898;SDS011;4988;49.238;6.698;2022-08-19T03:49:41;18.67;;;12.70;;
9898;SDS011;4988;49.238;6.698;2022-08-19T03:52:06;20.03;;;12.93;;
9898;SDS011;4988;49.238;6.698;2022-08-19T03:54:33;19.63;;;12.10;;
9898;SDS011;4988;49.238;6.698;2022-08-19T03:56:59;18.80;;;12.30;;
9898;SDS011;4988;49.238;6.698;2022-08-19T03:59:29;18.27;;;12.40;;
9898;SDS011;4988;49.238;6.698;2022-08-19T04:01:58;19.07;;;12.33;;
9898;SDS011;4988;49.238;6.698;2022-08-19T04:04:25;18.30;;;12.00;;
9898;SDS011;4988;49.238;6.698;2022-08-19T04:06:51;19.23;;;12.10;;
9898;SDS011;4988;49.238;6.698;2022-08-19T04:09:17;22.07;;;12.87;;
9898;SDS011;4988;49.238;6.698;2022-08-19T04:11:45;20.07;;;12.73;;
9898;SDS011;4988;49.238;6.698;2022-08-19T04:14:18;18.43;;;12.73;;
9898;SDS011;4988;49.238;6.698;2022-08-19T04:16:46;19.23;;;12.80;;
9898;SDS011;4988;49.238;6.698;2022-08-19T04:19:14;18.23;;;12.73;;
9898;SDS011;4988;49.238;6.698;2022-08-19T04:21:40;18.93;;;13.03;;
9898;SDS011;4988;49.238;6.698;2022-08-19T04:24:09;19.97;;;13.43;;
9898;SDS011;4988;49.238;6.698;2022-08-19T04:26:36;21.47;;;12.87;;
9898;SDS011;4988;49.238;6.698;2022-08-19T04:29:10;20.30;;;13.40;;
9898;SDS011;4988;49.238;6.698;2022-08-19T04:31:37;21.13;;;13.40;;
9898;SDS011;4988;49.238;6.698;2022-08-19T04:34:04;22.90;;;12.97;;
9898;SDS011;4988;49.238;6.698;2022-08-19T04:36:33;20.57;;;13.50;;
9898;SDS011;4988;49.238;6.698;2022-08-19T04:39:03;19.97;;;12.47;;
9898;SDS011;4988;49.238;6.698;2022-08-19T04:41:30;19.73;;;12.93;;
9898;SDS011;4988;49.238;6.698;2022-08-19T04:44:14;18.20;;;12.40;;
9898;SDS011;4988;49.238;6.698;2022-08-19T04:46:43;22.63;;;13.80;;
9898;SDS011;4988;49.238;6.698;2022-08-19T04:49:09;18.30;;;12.13;;
9898;SDS011;4988;49.238;6.698;2022-08-19T04:51:34;18.90;;;12.47;;
9898;SDS011;4988;49.238;6.698;2022-08-19T04:54:01;19.47;;;12.60;;
9898;SDS011;4988;49.238;6.698;2022-08-19T04:56:27;21.43;;;13.07;;
9898;SDS011;4988;49.238;6.698;2022-08-19T04:58:54;23.47;;;13.70;;
9898;SDS011;4988;49.238;6.698;2022-08-19T05:01:22;22.40;;;13.87;;
9898;SDS011;4988;49.238;6.698;2022-08-19T05:03:53;19.57;;;12.93;;
9898;SDS011;4988;49.238;6.698;2022-08-19T05:06:19;21.73;;;13.70;;
9898;SDS011;4988;49.238;6.698;2022-08-19T05:08:47;17.63;;;12.70;;
9898;SDS011;4988;49.238;6.698;2022-08-19T05:11:14;19.63;;;13.13;;
9898;SDS011;4988;49.238;6.698;2022-08-19T05:13:45;19.97;;;13.50;;
9898;SDS011;4988;49.238;6.698;2022-08-19T05:16:13;21.50;;;13.80;;
9898;SDS011;4988;49.238;6.698;2022-08-19T05:18:41;20.00;;;13.13;;
9898;SDS011;4988;49.238;6.698;2022-08-19T05:21:26;20.10;;;13.70;;
9898;SDS011;4988;49.238;6.698;2022-08-19T05:24:12;21.00;;;13.17;;
9898;SDS011;4988;49.238;6.698;2022-08-19T05:26:40;22.73;;;13.53;;
9898;SDS011;4988;49.238;6.698;2022-08-19T05:29:13;26.00;;;13.37;;
9898;SDS011;4988;49.238;6.698;2022-08-19T05:31:41;19.10;;;12.47;;
9898;SDS011;4988;49.238;6.698;2022-08-19T05:34:06;22.90;;;13.30;;
9898;SDS011;4988;49.238;6.698;2022-08-19T05:36:34;23.97;;;13.87;;
9898;SDS011;4988;49.238;6.698;2022-08-19T05:39:04;21.27;;;13.90;;
9898;SDS011;4988;49.238;6.698;2022-08-19T05:41:31;28.90;;;15.17;;
9898;SDS011;4988;49.238;6.698;2022-08-19T05:43:57;22.33;;;13.23;;
9898;SDS011;4988;49.238;6.698;2022-08-19T05:46:23;19.97;;;13.37;;
9898;SDS011;4988;49.238;6.698;2022-08-19T05:48:49;22.37;;;12.70;;
9898;SDS011;4988;49.238;6.698;2022-08-19T05:51:14;20.00;;;12.37;;
9898;SDS011;4988;49.238;6.698;2022-08-19T05:53:41;22.37;;;13.37;;
9898;SDS011;4988;49.238;6.698;2022-08-19T05:56:07;20.13;;;12.97;;
9898;SDS011;4988;49.238;6.698;2022-08-19T05:58:35;20.03;;;12.97;;
9898;SDS011;4988;49.238;6.698;2022-08-19T06:01:02;21.27;;;12.73;;
9898;SDS011;4988;49.238;6.698;2022-08-19T06:03:32;23.97;;;12.30;;
9898;SDS011;4988;49.238;6.698;2022-08-19T06:05:58;19.83;;;12.33;;
9898;SDS011;4988;49.238;6.698;2022-08-19T06:08:25;18.73;;;11.50;;
9898;SDS011;4988;49.238;6.698;2022-08-19T06:10:52;18.73;;;11.33;;
9898;SDS011;4988;49.238;6.698;2022-08-19T06:13:18;22.07;;;12.60;;
9898;SDS011;4988;49.238;6.698;2022-08-19T06:15:44;18.73;;;12.60;;
9898;SDS011;4988;49.238;6.698;2022-08-19T06:18:11;18.17;;;12.23;;
9898;SDS011;4988;49.238;6.698;2022-08-19T06:20:37;18.33;;;12.50;;
9898;SDS011;4988;49.238;6.698;2022-08-19T06:23:02;19.87;;;12.50;;
9898;SDS011;4988;49.238;6.698;2022-08-19T06:25:28;18.57;;;11.83;;
9898;SDS011;4988;49.238;6.698;2022-08-19T06:27:53;19.30;;;12.27;;
9898;SDS011;4988;49.238;6.698;2022-08-19T06:30:19;18.77;;;12.37;;
9898;SDS011;4988;49.238;6.698;2022-08-19T06:32:44;20.00;;;12.87;;
9898;SDS011;4988;49.238;6.698;2022-08-19T06:35:09;17.17;;;12.20;;
9898;SDS011;4988;49.238;6.698;2022-08-19T06:37:36;21.80;;;12.47;;
9898;SDS011;4988;49.238;6.698;2022-08-19T06:40:02;19.57;;;12.07;;
9898;SDS011;4988;49.238;6.698;2022-08-19T06:42:28;19.70;;;12.33;;
9898;SDS011;4988;49.238;6.698;2022-08-19T06:44:54;17.17;;;12.27;;
9898;SDS011;4988;49.238;6.698;2022-08-19T06:47:20;19.03;;;12.07;;
9898;SDS011;4988;49.238;6.698;2022-08-19T06:49:46;19.60;;;11.93;;
9898;SDS011;4988;49.238;6.698;2022-08-19T06:52:12;20.33;;;12.37;;
9898;SDS011;4988;49.238;6.698;2022-08-19T06:54:39;22.63;;;11.73;;
9898;SDS011;4988;49.238;6.698;2022-08-19T06:57:06;18.43;;;12.30;;
9898;SDS011;4988;49.238;6.698;2022-08-19T06:59:34;16.97;;;12.10;;
9898;SDS011;4988;49.238;6.698;2022-08-19T07:02:00;21.20;;;12.10;;
9898;SDS011;4988;49.238;6.698;2022-08-19T07:04:30;21.80;;;13.00;;
9898;SDS011;4988;49.238;6.698;2022-08-19T07:07:02;22.43;;;13.50;;
9898;SDS011;4988;49.238;6.698;2022-08-19T07:09:32;19.57;;;12.60;;
9898;SDS011;4988;49.238;6.698;2022-08-19T07:11:57;23.80;;;13.00;;
9898;SDS011;4988;49.238;6.698;2022-08-19T07:14:25;18.10;;;12.87;;
9898;SDS011;4988;49.238;6.698;2022-08-19T07:16:52;19.07;;;12.80;;
9898;SDS011;4988;49.238;6.698;2022-08-19T07:19:20;19.90;;;12.43;;
9898;SDS011;4988;49.238;6.698;2022-08-19T07:21:49;22.53;;;12.80;;
9898;SDS011;4988;49.238;6.698;2022-08-19T07:24:22;17.97;;;12.23;;
9898;SDS011;4988;49.238;6.698;2022-08-19T07:26:49;19.43;;;12.30;;
9898;SDS011;4988;49.238;6.698;2022-08-19T07:29:17;21.40;;;13.77;;
9898;SDS011;4988;49.238;6.698;2022-08-19T07:31:44;21.23;;;12.83;;
9898;SDS011;4988;49.238;6.698;2022-08-19T07:34:10;17.43;;;12.63;;
9898;SDS011;4988;49.238;6.698;2022-08-19T07:36:39;22.17;;;12.63;;
9898;SDS011;4988;49.238;6.698;2022-08-19T07:39:17;22.03;;;12.83;;
9898;SDS011;4988;49.238;6.698;2022-08-19T07:41:45;17.97;;;12.20;;
9898;SDS011;4988;49.238;6.698;2022-08-19T07:44:11;17.47;;;11.83;;
9898;SDS011;4988;49.238;6.698;2022-08-19T07:46:40;19.70;;;12.90;;
9898;SDS011;4988;49.238;6.698;2022-08-19T07:49:09;20.07;;;12.43;;
9898;SDS011;4988;49.238;6.698;2022-08-19T07:51:48;18.50;;;12.40;;
9898;SDS011;4988;49.238;6.698;2022-08-19T07:54:20;19.93;;;12.10;;
9898;SDS011;4988;49.238;6.698;2022-08-19T07:56:47;18.57;;;12.63;;
9898;SDS011;4988;49.238;6.698;2022-08-19T07:59:18;22.37;;;14.30;;
9898;SDS011;4988;49.238;6.698;2022-08-19T08:01:48;20.23;;;13.20;;
9898;SDS011;4988;49.238;6.698;2022-08-19T08:04:17;19.27;;;13.17;;
9898;SDS011;4988;49.238;6.698;2022-08-19T08:07:02;17.77;;;12.40;;
9898;SDS011;4988;49.238;6.698;2022-08-19T08:09:47;20.20;;;12.40;;
9898;SDS011;4988;49.238;6.698;2022-08-19T08:12:17;19.90;;;13.53;;
9898;SDS011;4988;49.238;6.698;2022-08-19T08:14:48;17.07;;;12.47;;
9898;SDS011;4988;49.238;6.698;2022-08-19T08:17:17;19.60;;;13.37;;
9898;SDS011;4988;49.238;6.698;2022-08-19T08:19:48;20.47;;;14.23;;
9898;SDS011;4988;49.238;6.698;2022-08-19T08:22:15;23.93;;;14.13;;
9898;SDS011;4988;49.238;6.698;2022-08-19T08:25:06;21.47;;;14.00;;
9898;SDS011;4988;49.238;6.698;2022-08-19T08:30:25;21.97;;;15.73;;
9898;SDS011;4988;49.238;6.698;2022-08-19T08:32:51;24.47;;;15.17;;
9898;SDS011;4988;49.238;6.698;2022-08-19T08:35:18;20.00;;;13.87;;
9898;SDS011;4988;49.238;6.698;2022-08-19T08:37:46;19.60;;;13.97;;
9898;SDS011;4988;49.238;6.698;2022-08-19T08:43:10;20.30;;;13.33;;
9898;SDS011;4988;49.238;6.698;2022-08-19T08:45:55;23.20;;;15.63;;
9898;SDS011;4988;49.238;6.698;2022-08-19T08:48:38;20.77;;;14.03;;
9898;SDS011;4988;49.238;6.698;2022-08-19T08:51:12;20.00;;;14.20;;
9898;SDS011;4988;49.238;6.698;2022-08-19T08:53:43;22.33;;;15.37;;
9898;SDS011;4988;49.238;6.698;2022-08-19T08:56:11;20.57;;;14.50;;
9898;SDS011;4988;49.238;6.698;2022-08-19T09:01:25;19.80;;;13.03;;
9898;SDS011;4988;49.238;6.698;2022-08-19T09:03:51;23.83;;;16.10;;
9898;SDS011;4988;49.238;6.698;2022-08-19T09:11:28;17.43;;;13.07;;
9898;SDS011;4988;49.238;6.698;2022-08-19T09:17:03;19.77;;;13.73;;
9898;SDS011;4988;49.238;6.698;2022-08-19T09:19:32;20.27;;;14.80;;
9898;SDS011;4988;49.238;6.698;2022-08-19T09:21:59;25.83;;;14.87;;
9898;SDS011;4988;49.238;6.698;2022-08-19T09:24:25;18.47;;;13.17;;
9898;SDS011;4988;49.238;6.698;2022-08-19T09:26:51;23.27;;;14.87;;
9898;SDS011;4988;49.238;6.698;2022-08-19T09:29:16;20.63;;;14.87;;
9898;SDS011;4988;49.238;6.698;2022-08-19T09:31:42;22.73;;;14.30;;
9898;SDS011;4988;49.238;6.698;2022-08-19T09:34:07;17.87;;;12.70;;
9898;SDS011;4988;49.238;6.698;2022-08-19T09:36:33;19.93;;;13.03;;
9898;SDS011;4988;49.238;6.698;2022-08-19T09:39:00;20.80;;;14.40;;
9898;SDS011;4988;49.238;6.698;2022-08-19T09:41:27;21.73;;;13.53;;
9898;SDS011;4988;49.238;6.698;2022-08-19T09:43:53;19.73;;;13.77;;
9898;SDS011;4988;49.238;6.698;2022-08-19T09:46:21;15.43;;;11.07;;
9898;SDS011;4988;49.238;6.698;2022-08-19T09:48:48;18.53;;;11.67;;
9898;SDS011;4988;49.238;6.698;2022-08-19T09:51:16;16.67;;;11.60;;
9898;SDS011;4988;49.238;6.698;2022-08-19T09:53:47;18.20;;;12.67;;
9898;SDS011;4988;49.238;6.698;2022-08-19T09:56:15;18.00;;;11.50;;
9898;SDS011;4988;49.238;6.698;2022-08-19T09:58:42;20.23;;;12.33;;
9898;SDS011;4988;49.238;6.698;2022-08-19T10:01:08;19.47;;;12.13;;
9898;SDS011;4988;49.238;6.698;2022-08-19T10:03:34;14.80;;;10.57;;
9898;SDS011;4988;49.238;6.698;2022-08-19T10:06:02;15.93;;;11.10;;
9898;SDS011;4988;49.238;6.698;2022-08-19T10:08:30;17.37;;;11.37;;
9898;SDS011;4988;49.238;6.698;2022-08-19T10:10:59;17.33;;;11.60;;
9898;SDS011;4988;49.238;6.698;2022-08-19T10:13:26;17.33;;;11.50;;
9898;SDS011;4988;49.238;6.698;2022-08-19T10:15:54;14.13;;;10.63;;
9898;SDS011;4988;49.238;6.698;2022-08-19T10:18:21;18.67;;;12.63;;
9898;SDS011;4988;49.238;6.698;2022-08-19T10:20:48;16.73;;;11.20;;
9898;SDS011;4988;49.238;6.698;2022-08-19T10:23:16;14.10;;;10.77;;
9898;SDS011;4988;49.238;6.698;2022-08-19T10:25:42;14.70;;;9.93;;
9898;SDS011;4988;49.238;6.698;2022-08-19T10:28:08;15.53;;;10.03;;
9898;SDS011;4988;49.238;6.698;2022-08-19T10:30:37;15.63;;;10.20;;
9898;SDS011;4988;49.238;6.698;2022-08-19T10:33:04;13.43;;;10.43;;
9898;SDS011;4988;49.238;6.698;2022-08-19T10:35:30;19.07;;;11.27;;
9898;SDS011;4988;49.238;6.698;2022-08-19T10:37:56;16.70;;;11.50;;
9898;SDS011;4988;49.238;6.698;2022-08-19T10:40:25;14.13;;;10.40;;
9898;SDS011;4988;49.238;6.698;2022-08-19T10:42:52;13.03;;;9.97;;
9898;SDS011;4988;49.238;6.698;2022-08-19T10:45:18;15.57;;;10.13;;
9898;SDS011;4988;49.238;6.698;2022-08-19T10:47:44;17.27;;;10.80;;
9898;SDS011;4988;49.238;6.698;2022-08-19T10:50:09;17.97;;;11.17;;
9898;SDS011;4988;49.238;6.698;2022-08-19T10:52:53;13.83;;;10.87;;
9898;SDS011;4988;49.238;6.698;2022-08-19T10:55:19;15.83;;;11.53;;
9898;SDS011;4988;49.238;6.698;2022-08-19T10:58:12;16.53;;;11.70;;
9898;SDS011;4988;49.238;6.698;2022-08-19T11:00:40;15.20;;;11.27;;
9898;SDS011;4988;49.238;6.698;2022-08-19T11:03:05;13.10;;;10.37;;
9898;SDS011;4988;49.238;6.698;2022-08-19T11:05:31;15.67;;;12.10;;
9898;SDS011;4988;49.238;6.698;2022-08-19T11:07:56;14.67;;;11.63;;
9898;SDS011;4988;49.238;6.698;2022-08-19T11:10:22;14.03;;;11.37;;
9898;SDS011;4988;49.238;6.698;2022-08-19T11:12:48;17.20;;;12.00;;
9898;SDS011;4988;49.238;6.698;2022-08-19T11:15:17;18.43;;;11.90;;
9898;SDS011;4988;49.238;6.698;2022-08-19T11:17:43;16.00;;;11.93;;
9898;SDS011;4988;49.238;6.698;2022-08-19T11:20:12;14.90;;;11.07;;
9898;SDS011;4988;49.238;6.698;2022-08-19T11:22:39;18.07;;;12.47;;
9898;SDS011;4988;49.238;6.698;2022-08-19T11:25:07;16.63;;;12.50;;
9898;SDS011;4988;49.238;6.698;2022-08-19T11:27:37;20.73;;;12.33;;
9898;SDS011;4988;49.238;6.698;2022-08-19T11:30:04;16.77;;;12.53;;
9898;SDS011;4988;49.238;6.698;2022-08-19T11:32:32;16.30;;;11.43;;
9898;SDS011;4988;49.238;6.698;2022-08-19T11:34:58;18.07;;;11.83;;
9898;SDS011;4988;49.238;6.698;2022-08-19T11:37:24;19.10;;;12.63;;
9898;SDS011;4988;49.238;6.698;2022-08-19T11:39:49;16.50;;;11.63;;
9898;SDS011;4988;49.238;6.698;2022-08-19T11:42:14;18.10;;;11.60;;
9898;SDS011;4988;49.238;6.698;2022-08-19T11:44:58;16.73;;;11.63;;
9898;SDS011;4988;49.238;6.698;2022-08-19T11:47:23;18.03;;;11.80;;
9898;SDS011;4988;49.238;6.698;2022-08-19T11:49:49;17.20;;;11.37;;
9898;SDS011;4988;49.238;6.698;2022-08-19T11:52:14;18.67;;;11.30;;
9898;SDS011;4988;49.238;6.698;2022-08-19T11:54:40;17.23;;;11.20;;
9898;SDS011;4988;49.238;6.698;2022-08-19T11:57:05;16.50;;;11.63;;
9898;SDS011;4988;49.238;6.698;2022-08-19T11:59:30;16.53;;;10.87;;
9898;SDS011;4988;49.238;6.698;2022-08-19T12:01:56;16.63;;;10.80;;
9898;SDS011;4988;49.238;6.698;2022-08-19T12:04:22;15.67;;;11.40;;
9898;SDS011;4988;49.238;6.698;2022-08-19T12:06:47;18.17;;;12.93;;
9898;SDS011;4988;49.238;6.698;2022-08-19T12:09:15;17.47;;;11.70;;
9898;SDS011;4988;49.238;6.698;2022-08-19T12:11:41;18.27;;;12.43;;
9898;SDS011;4988;49.238;6.698;2022-08-19T12:14:09;19.27;;;11.67;;
9898;SDS011;4988;49.238;6.698;2022-08-19T12:16:36;22.67;;;12.50;;
9898;SDS011;4988;49.238;6.698;2022-08-19T12:19:03;19.47;;;12.97;;
9898;SDS011;4988;49.238;6.698;2022-08-19T12:21:30;18.90;;;11.53;;
9898;SDS011;4988;49.238;6.698;2022-08-19T12:23:57;16.40;;;11.97;;
9898;SDS011;4988;49.238;6.698;2022-08-19T12:26:24;17.10;;;12.33;;
9898;SDS011;4988;49.238;6.698;2022-08-19T12:28:52;20.03;;;11.90;;
9898;SDS011;4988;49.238;6.698;2022-08-19T12:31:18;16.87;;;12.57;;
9898;SDS011;4988;49.238;6.698;2022-08-19T12:33:45;18.27;;;12.10;;
9898;SDS011;4988;49.238;6.698;2022-08-19T12:36:11;15.03;;;11.17;;
9898;SDS011;4988;49.238;6.698;2022-08-19T12:38:40;15.33;;;11.83;;
9898;SDS011;4988;49.238;6.698;2022-08-19T12:41:07;17.07;;;11.13;;
9898;SDS011;4988;49.238;6.698;2022-08-19T12:43:35;16.70;;;11.33;;
9898;SDS011;4988;49.238;6.698;2022-08-19T12:46:02;15.70;;;10.47;;
9898;SDS011;4988;49.238;6.698;2022-08-19T12:48:29;17.50;;;9.60;;
9898;SDS011;4988;49.238;6.698;2022-08-19T12:50:54;13.47;;;9.20;;
9898;SDS011;4988;49.238;6.698;2022-08-19T12:53:20;14.77;;;10.00;;
9898;SDS011;4988;49.238;6.698;2022-08-19T12:55:45;13.33;;;9.27;;
9898;SDS011;4988;49.238;6.698;2022-08-19T12:58:11;14.27;;;8.80;;
9898;SDS011;4988;49.238;6.698;2022-08-19T13:00:37;13.47;;;9.00;;
9898;SDS011;4988;49.238;6.698;2022-08-19T13:03:03;12.93;;;8.40;;
9898;SDS011;4988;49.238;6.698;2022-08-19T13:05:29;11.37;;;8.27;;
9898;SDS011;4988;49.238;6.698;2022-08-19T13:07:58;11.83;;;7.93;;
9898;SDS011;4988;49.238;6.698;2022-08-19T13:10:26;10.20;;;7.57;;
9898;SDS011;4988;49.238;6.698;2022-08-19T13:12:54;11.30;;;7.10;;
9898;SDS011;4988;49.238;6.698;2022-08-19T13:15:20;9.33;;;7.00;;
9898;SDS011;4988;49.238;6.698;2022-08-19T13:17:48;11.27;;;6.90;;
9898;SDS011;4988;49.238;6.698;2022-08-19T13:20:15;9.90;;;6.20;;
9898;SDS011;4988;49.238;6.698;2022-08-19T13:22:43;8.97;;;6.20;;
9898;SDS011;4988;49.238;6.698;2022-08-19T13:25:10;9.93;;;5.50;;
9898;SDS011;4988;49.238;6.698;2022-08-19T13:27:36;10.00;;;5.47;;
9898;SDS011;4988;49.238;6.698;2022-08-19T13:30:02;7.97;;;5.20;;
9898;SDS011;4988;49.238;6.698;2022-08-19T13:32:47;8.80;;;5.23;;
9898;SDS011;4988;49.238;6.698;2022-08-19T13:35:31;7.50;;;5.13;;
9898;SDS011;4988;49.238;6.698;2022-08-19T13:37:57;6.43;;;4.73;;
9898;SDS011;4988;49.238;6.698;2022-08-19T13:40:23;6.67;;;4.47;;
9898;SDS011;4988;49.238;6.698;2022-08-19T13:42:52;5.27;;;4.20;;
9898;SDS011;4988;49.238;6.698;2022-08-19T13:45:20;5.70;;;3.80;;
9898;SDS011;4988;49.238;6.698;2022-08-19T13:47:49;5.10;;;4.20;;
9898;SDS011;4988;49.238;6.698;2022-08-19T13:50:17;5.10;;;4.00;;
9898;SDS011;4988;49.238;6.698;2022-08-19T13:52:45;7.07;;;3.90;;
9898;SDS011;4988;49.238;6.698;2022-08-19T13:55:12;5.57;;;4.10;;
9898;SDS011;4988;49.238;6.698;2022-08-19T13:57:39;5.43;;;3.70;;
9898;SDS011;4988;49.238;6.698;2022-08-19T14:00:15;9.60;;;3.80;;
9898;SDS011;4988;49.238;6.698;2022-08-19T14:02:43;4.10;;;3.40;;
9898;SDS011;4988;49.238;6.698;2022-08-19T14:05:10;4.67;;;3.20;;
9898;SDS011;4988;49.238;6.698;2022-08-19T14:07:37;3.87;;;3.27;;
9898;SDS011;4988;49.238;6.698;2022-08-19T14:10:03;3.60;;;3.10;;
9898;SDS011;4988;49.238;6.698;2022-08-19T14:12:31;3.97;;;2.77;;
9898;SDS011;4988;49.238;6.698;2022-08-19T14:14:57;4.30;;;2.97;;
9898;SDS011;4988;49.238;6.698;2022-08-19T14:17:23;4.13;;;3.30;;
9898;SDS011;4988;49.238;6.698;2022-08-19T14:19:49;4.70;;;3.10;;
9898;SDS011;4988;49.238;6.698;2022-08-19T14:22:15;5.40;;;2.93;;
9898;SDS011;4988;49.238;6.698;2022-08-19T14:24:40;5.67;;;3.00;;
9898;SDS011;4988;49.238;6.698;2022-08-19T14:27:06;3.87;;;3.13;;
9898;SDS011;4988;49.238;6.698;2022-08-19T14:29:32;3.90;;;3.13;;
9898;SDS011;4988;49.238;6.698;2022-08-19T14:31:58;4.23;;;3.33;;
9898;SDS011;4988;49.238;6.698;2022-08-19T14:34:24;3.53;;;2.77;;
9898;SDS011;4988;49.238;6.698;2022-08-19T14:36:50;3.07;;;2.73;;
9898;SDS011;4988;49.238;6.698;2022-08-19T14:39:16;4.07;;;2.93;;
9898;SDS011;4988;49.238;6.698;2022-08-19T14:41:42;4.07;;;3.10;;
9898;SDS011;4988;49.238;6.698;2022-08-19T14:44:08;3.30;;;2.93;;
9898;SDS011;4988;49.238;6.698;2022-08-19T14:46:37;3.60;;;3.00;;
9898;SDS011;4988;49.238;6.698;2022-08-19T14:49:03;4.40;;;3.47;;
9898;SDS011;4988;49.238;6.698;2022-08-19T14:51:28;5.30;;;3.50;;
9898;SDS011;4988;49.238;6.698;2022-08-19T14:53:54;7.23;;;3.63;;
9898;SDS011;4988;49.238;6.698;2022-08-19T14:56:21;4.30;;;3.63;;
9898;SDS011;4988;49.238;6.698;2022-08-19T14:58:48;4.80;;;3.73;;
9898;SDS011;4988;49.238;6.698;2022-08-19T15:01:16;5.07;;;3.90;;
9898;SDS011;4988;49.238;6.698;2022-08-19T15:03:45;5.17;;;4.03;;
9898;SDS011;4988;49.238;6.698;2022-08-19T15:06:11;6.03;;;3.83;;
9898;SDS011;4988;49.238;6.698;2022-08-19T15:08:36;4.60;;;3.57;;
9898;SDS011;4988;49.238;6.698;2022-08-19T15:11:06;5.93;;;3.70;;
9898;SDS011;4988;49.238;6.698;2022-08-19T15:13:34;4.73;;;3.17;;